LFJL/ETZ METAR and TAF weather

Enter ICAO airport designator
Station Type Date Time Source
LFJL METAR 2019/12/13 03:30 UTC NOAA

LFJL 130330Z AUTO 17016KT 9999 -RA OVC008/// ///TCU 04/03 Q0979


Station Type Date Time Source
LFJL Decoded METAR 2019/12/13 03:30 UTC NOAA

Metz-Nancy-Lorraine, France (LFJL) 48-59N 006-15E
Dec 12, 2019 - 10:30 PM EST / 2019.12.13 0330 UTC
Wind: from the S (170 degrees) at 18 MPH (16 KT):0
Visibility: greater than 7 mile(s):0
Sky conditions: overcast
Weather: light rain; Towering cumulus clouds observed
Temperature: 39 F (4 C)
Dew Point: 37 F (3 C)
Relative Humidity: 93%
Pressure (altimeter): 28.91 in. Hg (0979 hPa)
ob: LFJL 130330Z AUTO 17016KT 9999 -RA OVC008/// ///TCU 04/03 Q0979
cycle: 3

Station Type Date Time Source
LFJL TAF 2019/12/12 18:24 UTC NOAA

TAF LFJL 121700Z 1218/1318 17015KT 9999 FEW025 OVC070
BECMG 1221/1223 -RA OVC015
TEMPO 1223/1307 18018G30KT 3000 RA OVC005
BECMG 1307/1309 26017KT NSW PROB40
TEMPO 1307/1318 26018G30KT 4500 SHRA

Example: see airport list